createdAt,value
2022-12-08T00:00:00.254Z,0.61
2022-12-08T00:16:02.378Z,0.56
2022-12-08T00:30:59.732Z,0.56
2022-12-08T00:46:01.850Z,0.56
2022-12-08T01:00:03.981Z,0.56
2022-12-08T01:16:00.846Z,0.5
2022-12-08T01:31:03.199Z,0.5
2022-12-08T01:46:00.371Z,0.5
2022-12-08T02:00:02.818Z,0.5
2022-12-08T02:15:59.613Z,0.5
2022-12-08T02:31:01.649Z,0.5
2022-12-08T02:46:03.831Z,0.44
2022-12-08T03:00:00.719Z,0.44
2022-12-08T03:16:03.010Z,0.33
2022-12-08T03:31:00.277Z,0.28
2022-12-08T03:46:02.655Z,0.28
2022-12-08T03:59:59.533Z,0.28
2022-12-08T04:16:02.087Z,0.28
2022-12-08T04:31:04.351Z,0.28
2022-12-08T04:46:01.362Z,0.28
2022-12-08T05:00:03.707Z,0.28
2022-12-08T05:16:00.904Z,0.28
2022-12-08T05:31:03.272Z,0.22
2022-12-08T05:46:00.565Z,0.17
2022-12-08T06:00:03.042Z,0.17
2022-12-08T06:15:59.698Z,0.06
2022-12-08T06:31:02.002Z,0
2022-12-08T06:46:04.421Z,-0.06
2022-12-08T07:00:01.466Z,-0.11
2022-12-08T07:16:03.574Z,-0.28
2022-12-08T07:31:00.877Z,-0.28
2022-12-08T07:46:04.019Z,-0.17
2022-12-08T08:00:00.255Z,-0.17
2022-12-08T08:16:02.778Z,-0.11
2022-12-08T08:30:59.965Z,0.06
2022-12-08T08:46:01.170Z,0.17
2022-12-08T09:00:02.837Z,0.39
2022-12-08T09:16:03.452Z,0.44
2022-12-08T09:31:04.294Z,0.61
2022-12-08T09:46:00.218Z,0.94
2022-12-08T10:00:01.130Z,1.22
2022-12-08T10:16:02.077Z,1.33
2022-12-08T10:31:03.297Z,1.5
2022-12-08T10:45:59.301Z,1.94
2022-12-08T11:00:00.255Z,1.83
2022-12-08T11:16:01.215Z,1.94
2022-12-08T11:31:02.177Z,2.06
2022-12-08T11:46:03.064Z,2.17
2022-12-08T12:00:04.102Z,2.44
2022-12-08T12:15:59.629Z,2.44
2022-12-08T12:31:00.863Z,2.61
2022-12-08T12:46:01.823Z,2.83
2022-12-08T13:00:02.502Z,3
2022-12-08T13:16:12.663Z,3
2022-12-08T13:30:59.361Z,3.06
2022-12-08T14:00:01.411Z,2.94
2022-12-08T14:16:02.679Z,2.56
2022-12-08T14:31:03.428Z,2.22
2022-12-08T14:45:59.485Z,1.78
2022-12-08T15:00:00.097Z,1.28
2022-12-08T15:16:00.868Z,0.83
2022-12-08T15:31:01.863Z,0.5
2022-12-08T15:46:02.495Z,0.28
2022-12-08T16:00:03.784Z,0.11
2022-12-08T16:16:01.156Z,-0.11
2022-12-08T16:31:00.346Z,-0.28
2022-12-08T16:46:01.399Z,-0.5
2022-12-08T17:00:02.290Z,-0.67
2022-12-08T17:16:03.161Z,-0.78
2022-12-08T17:31:04.541Z,-0.94
2022-12-08T17:46:00.448Z,-1.06
2022-12-08T18:00:01.049Z,-1.22
2022-12-08T18:16:02.092Z,-1.39
2022-12-08T18:31:03.275Z,-1.44
2022-12-08T18:46:04.260Z,-1.56
2022-12-08T19:00:00.304Z,-1.61
2022-12-08T19:16:01.606Z,-1.61
2022-12-08T19:31:02.093Z,-1.67
2022-12-08T19:46:03.234Z,-1.61
2022-12-08T20:00:03.918Z,-1.61
2022-12-08T20:16:12.416Z,-1.67
2022-12-08T20:31:00.879Z,-1.67
2022-12-08T20:46:01.910Z,-1.61
2022-12-08T21:00:02.483Z,-1.67
2022-12-08T21:16:03.475Z,-1.78
2022-12-08T21:31:04.668Z,-1.83
2022-12-08T21:46:00.841Z,-1.83
2022-12-08T22:00:01.471Z,-1.78
2022-12-08T22:16:02.701Z,-1.89
2022-12-08T22:31:03.724Z,-2
2022-12-08T22:46:08.638Z,-2
2022-12-08T23:00:00.495Z,-2
2022-12-08T23:16:01.513Z,-2
2022-12-08T23:31:02.514Z,-2.06
2022-12-08T23:46:03.588Z,-2.06
